Time;durP1;ratioP1;P1;durP2;ratioP2;P2;SDS_P1;SDS_P2;PMS_P1;PMS_P2;Temp;Humidity;BMP_temperature;BMP_pressure;BME280_temperature;BME280_humidity;BME280_pressure;Samples;Min_cycle;Max_cycle;Signal;HPM_P1;HPM_P2
2021/01/30 00:00:08;;;;;;;11.97;11.47;;;6.70;99.90;;;;;;5065630;28;20455;-75
2021/01/30 00:02:34;;;;;;;12.23;11.73;;;6.70;99.90;;;;;;5065197;28;20486;-75
2021/01/30 00:05:01;;;;;;;12.50;12.00;;;6.70;99.90;;;;;;5062485;28;20473;-76
2021/01/30 00:07:28;;;;;;;12.80;12.30;;;6.70;99.90;;;;;;5064427;28;20541;-75
2021/01/30 00:09:54;;;;;;;12.40;11.90;;;6.60;99.90;;;;;;5064916;28;20459;-74
2021/01/30 00:12:21;;;;;;;13.00;12.50;;;6.60;99.90;;;;;;5066034;28;20470;-76
2021/01/30 00:14:49;;;;;;;12.30;11.80;;;6.70;99.90;;;;;;5064714;28;20523;-75
2021/01/30 00:17:15;;;;;;;12.13;11.63;;;6.70;99.90;;;;;;5065772;28;20889;-76
2021/01/30 00:19:45;;;;;;;11.93;11.43;;;6.70;99.90;;;;;;5064945;28;20455;-76
2021/01/30 00:22:14;;;;;;;12.30;11.80;;;6.60;99.90;;;;;;5064993;28;21075;-76
2021/01/30 00:24:43;;;;;;;11.47;11.07;;;6.60;99.90;;;;;;5064221;28;20836;-75
2021/01/30 00:27:11;;;;;;;11.90;11.40;;;6.60;99.90;;;;;;5065223;28;20544;-75
2021/01/30 00:29:39;;;;;;;11.93;11.43;;;6.50;99.90;;;;;;5065647;28;20478;-75
2021/01/30 00:32:08;;;;;;;11.40;11.00;;;6.50;99.90;;;;;;5064071;28;20490;-75
2021/01/30 00:34:36;;;;;;;11.77;11.27;;;6.50;99.90;;;;;;5063273;28;20908;-76
2021/01/30 00:37:07;;;;;;;11.53;11.13;;;6.50;99.90;;;;;;5064004;28;20467;-74
2021/01/30 00:39:34;;;;;;;12.70;12.20;;;6.60;99.90;;;;;;5065948;28;20835;-74
2021/01/30 00:42:01;;;;;;;12.90;12.40;;;6.60;99.90;;;;;;5065546;28;20486;-74
2021/01/30 00:44:29;;;;;;;12.00;11.50;;;6.50;99.90;;;;;;5064041;28;20463;-74
2021/01/30 00:46:57;;;;;;;13.00;12.50;;;6.50;99.90;;;;;;5063969;28;20872;-74
2021/01/30 00:49:25;;;;;;;11.57;11.17;;;6.50;99.90;;;;;;5064206;28;20470;-75
2021/01/30 00:51:52;;;;;;;12.87;12.37;;;6.40;99.90;;;;;;5065029;28;21055;-75
2021/01/30 00:54:19;;;;;;;12.63;12.13;;;6.50;99.90;;;;;;5065297;28;20498;-75
2021/01/30 00:56:49;;;;;;;12.57;12.07;;;6.50;99.90;;;;;;5063590;28;20466;-75
2021/01/30 00:59:15;;;;;;;12.07;11.57;;;6.50;99.90;;;;;;5063740;28;20559;-75
2021/01/30 01:01:42;;;;;;;12.50;12.00;;;6.40;99.90;;;;;;5063183;28;21000;-74
2021/01/30 01:04:08;;;;;;;11.77;11.27;;;6.40;99.90;;;;;;5063785;28;20471;-75
2021/01/30 01:06:37;;;;;;;11.30;10.90;;;6.30;99.90;;;;;;5064482;28;20915;-74
2021/01/30 01:09:05;;;;;;;10.83;10.43;;;6.40;99.90;;;;;;5064478;28;20589;-73
2021/01/30 01:11:32;;;;;;;11.60;11.20;;;6.40;99.90;;;;;;5063799;28;20474;-74
2021/01/30 01:13:58;;;;;;;11.13;10.73;;;6.40;99.90;;;;;;5063435;28;20532;-75
2021/01/30 01:16:24;;;;;;;11.87;11.37;;;6.40;99.90;;;;;;5063773;28;20465;-75
2021/01/30 01:18:50;;;;;;;11.93;11.43;;;6.40;99.90;;;;;;5065313;28;21086;-75
2021/01/30 01:21:18;;;;;;;11.63;11.23;;;6.40;99.90;;;;;;5062948;28;20508;-76
2021/01/30 01:23:45;;;;;;;11.60;11.20;;;6.40;99.90;;;;;;5063440;28;20463;-75
2021/01/30 01:26:13;;;;;;;11.60;11.20;;;6.30;99.90;;;;;;5062714;28;20466;-75
2021/01/30 01:28:40;;;;;;;12.17;11.67;;;6.40;99.90;;;;;;5065848;28;20463;-75
2021/01/30 01:31:07;;;;;;;12.63;12.13;;;6.30;99.90;;;;;;5063883;28;20486;-74
2021/01/30 01:33:34;;;;;;;12.70;12.20;;;6.10;99.90;;;;;;5063352;28;20463;-75
2021/01/30 01:36:00;;;;;;;12.27;11.77;;;6.00;99.90;;;;;;5063215;28;20509;-75
2021/01/30 01:38:27;;;;;;;12.00;11.50;;;6.00;99.90;;;;;;5063503;28;20466;-76
2021/01/30 01:40:54;;;;;;;12.50;12.00;;;6.00;99.90;;;;;;5062589;28;20485;-75
2021/01/30 01:43:23;;;;;;;11.37;10.97;;;6.00;99.90;;;;;;5064777;28;20469;-74
2021/01/30 01:46:06;;;;;;;12.70;12.20;;;6.00;99.90;;;;;;5063123;28;20459;-74
2021/01/30 01:48:38;;;;;;;12.03;11.53;;;5.90;99.90;;;;;;5061511;28;20494;-73
2021/01/30 01:51:07;;;;;;;12.20;11.70;;;5.90;99.90;;;;;;5063041;28;20977;-75
2021/01/30 01:53:36;;;;;;;12.47;11.97;;;5.80;99.90;;;;;;5062139;28;20479;-74
2021/01/30 01:56:08;;;;;;;12.73;12.23;;;5.60;99.90;;;;;;5062386;28;20505;-73
2021/01/30 01:58:40;;;;;;;12.43;11.93;;;5.60;99.90;;;;;;5062407;28;20467;-75
2021/01/30 02:01:08;;;;;;;13.07;12.57;;;5.50;99.90;;;;;;5062793;28;20463;-75
2021/01/30 02:03:34;;;;;;;13.50;12.97;;;5.50;99.90;;;;;;5065393;28;20858;-78
2021/01/30 02:06:03;;;;;;;13.00;12.50;;;5.50;99.90;;;;;;5064444;28;20467;-78
2021/01/30 02:08:31;;;;;;;13.30;12.80;;;5.50;99.90;;;;;;5064110;28;20920;-75
2021/01/30 02:10:57;;;;;;;13.07;12.57;;;5.30;99.90;;;;;;5063541;28;20512;-73
2021/01/30 02:13:28;;;;;;;12.80;12.30;;;5.10;99.90;;;;;;5063817;28;20451;-75
2021/01/30 02:16:14;;;;;;;13.67;13.07;;;4.70;99.90;;;;;;5064677;28;20455;-74
2021/01/30 02:18:46;;;;;;;13.60;13.00;;;4.60;99.90;;;;;;5064780;28;20467;-74
2021/01/30 02:21:52;;;;;;;13.30;12.73;;;4.30;99.90;;;;;;5064994;28;20531;-76
2021/01/30 02:24:53;;;;;;;12.77;12.27;;;4.10;99.90;;;;;;5063940;28;20450;-74
2021/01/30 02:27:39;;;;;;;13.27;12.77;;;4.00;99.90;;;;;;5040555;28;20910;-73
2021/01/30 02:30:42;;;;;;;12.70;12.20;;;4.00;99.90;;;;;;5064633;28;20963;-75
2021/01/30 02:33:29;;;;;;;12.70;12.20;;;3.90;99.90;;;;;;5066574;28;20462;-75
2021/01/30 02:36:09;;;;;;;12.43;11.93;;;3.80;99.90;;;;;;5064685;28;20478;-75
2021/01/30 02:38:38;;;;;;;12.87;12.37;;;3.70;99.90;;;;;;5064005;28;20478;-75
2021/01/30 02:41:09;;;;;;;12.53;12.03;;;3.60;99.90;;;;;;5063410;28;20461;-76
2021/01/30 02:43:41;;;;;;;13.00;12.50;;;3.60;99.90;;;;;;5063660;28;20463;-75
2021/01/30 02:46:19;;;;;;;12.60;12.10;;;3.50;99.90;;;;;;5063220;28;20893;-75
2021/01/30 02:48:51;;;;;;;12.60;12.10;;;3.50;99.90;;;;;;5064940;28;20488;-73
2021/01/30 02:51:23;;;;;;;12.23;11.73;;;3.40;99.90;;;;;;5064474;28;20519;-73
2021/01/30 02:53:53;;;;;;;12.53;12.03;;;3.30;99.90;;;;;;5063310;28;20589;-75
2021/01/30 02:56:21;;;;;;;13.10;12.60;;;3.30;99.90;;;;;;5064773;28;20469;-74
2021/01/30 02:58:54;;;;;;;14.37;13.77;;;3.20;99.90;;;;;;5067958;28;20458;-74
2021/01/30 03:01:20;;;;;;;14.30;13.70;;;3.00;99.90;;;;;;5068931;28;21003;-73
2021/01/30 03:03:48;;;;;;;14.80;14.10;;;3.00;99.90;;;;;;5067866;28;20470;-73
2021/01/30 03:06:21;;;;;;;14.40;13.80;;;2.90;99.90;;;;;;5066040;28;20457;-76
2021/01/30 03:08:57;;;;;;;14.70;14.00;;;2.90;99.90;;;;;;5067510;28;20841;-73
2021/01/30 03:11:29;;;;;;;14.40;13.80;;;2.70;99.90;;;;;;5067583;28;20946;-76
2021/01/30 03:13:59;;;;;;;14.40;13.80;;;2.70;99.90;;;;;;5067325;28;20485;-75
2021/01/30 03:16:33;;;;;;;13.53;12.93;;;2.60;99.90;;;;;;5067634;28;20979;-75
2021/01/30 03:19:07;;;;;;;13.50;12.90;;;2.70;99.90;;;;;;5069617;28;20680;-75
2021/01/30 03:21:35;;;;;;;13.37;12.77;;;2.70;99.90;;;;;;5067444;28;20486;-74
2021/01/30 03:24:04;;;;;;;13.47;12.87;;;2.60;99.90;;;;;;5067209;28;20476;-75
2021/01/30 03:26:31;;;;;;;14.40;13.80;;;2.60;99.90;;;;;;5066357;28;20466;-74
2021/01/30 03:28:58;;;;;;;14.00;13.40;;;2.50;99.90;;;;;;5065995;28;20462;-76
2021/01/30 03:31:25;;;;;;;13.60;13.00;;;2.60;99.90;;;;;;5066515;28;20473;-78
2021/01/30 03:33:51;;;;;;;13.70;13.10;;;2.50;99.90;;;;;;5066913;28;20461;-76
2021/01/30 03:36:18;;;;;;;13.47;12.87;;;2.60;99.90;;;;;;5068703;28;20466;-73
2021/01/30 03:38:45;;;;;;;13.40;12.80;;;2.60;99.90;;;;;;5067687;28;20457;-76
2021/01/30 03:41:12;;;;;;;13.43;12.83;;;2.60;99.90;;;;;;5067297;28;20466;-75
2021/01/30 03:43:38;;;;;;;13.10;12.60;;;2.60;99.90;;;;;;5065831;28;20838;-76
2021/01/30 03:46:05;;;;;;;13.97;13.37;;;2.60;99.90;;;;;;5065570;28;20488;-75
2021/01/30 03:48:31;;;;;;;13.77;13.17;;;2.60;99.90;;;;;;5068076;28;20466;-73
2021/01/30 03:50:57;;;;;;;13.73;13.13;;;2.60;99.90;;;;;;5067836;28;20512;-76
2021/01/30 03:53:24;;;;;;;14.43;13.83;;;2.60;99.90;;;;;;5065758;28;20492;-75
2021/01/30 03:55:51;;;;;;;14.30;13.70;;;2.70;99.90;;;;;;5066483;28;20464;-73
2021/01/30 03:58:18;;;;;;;16.40;15.70;;;2.70;99.90;;;;;;5066577;28;20979;-75
2021/01/30 04:00:45;;;;;;;14.97;14.27;;;2.60;99.90;;;;;;5068238;28;21087;-76
2021/01/30 04:03:11;;;;;;;14.90;14.20;;;2.60;99.90;;;;;;5065417;28;20502;-75
2021/01/30 04:05:37;;;;;;;14.57;13.97;;;2.60;99.90;;;;;;5065663;28;20482;-75
2021/01/30 04:08:05;;;;;;;15.03;14.33;;;2.60;99.90;;;;;;5064905;28;20465;-76
2021/01/30 04:10:33;;;;;;;15.30;14.60;;;2.50;99.90;;;;;;5066525;28;20557;-76
2021/01/30 04:13:02;;;;;;;14.20;13.60;;;2.50;99.90;;;;;;5066309;28;20821;-74
2021/01/30 04:15:31;;;;;;;13.00;12.50;;;2.40;99.90;;;;;;5067292;28;20462;-74
2021/01/30 04:17:58;;;;;;;13.20;12.60;;;2.40;99.90;;;;;;5066473;28;20474;-75
2021/01/30 04:20:25;;;;;;;13.43;12.83;;;2.30;99.90;;;;;;5065156;28;20462;-78
2021/01/30 04:22:52;;;;;;;14.07;13.47;;;2.30;99.90;;;;;;5065341;28;20486;-77
2021/01/30 04:25:20;;;;;;;13.80;13.20;;;2.20;99.90;;;;;;5064325;28;20461;-74
2021/01/30 04:27:47;;;;;;;14.17;13.57;;;2.30;99.90;;;;;;5065552;28;20488;-77
2021/01/30 04:30:17;;;;;;;14.07;13.47;;;2.20;99.90;;;;;;5065498;28;20466;-74
2021/01/30 04:32:45;;;;;;;14.07;13.47;;;2.20;99.90;;;;;;5066208;28;20523;-75
2021/01/30 04:35:13;;;;;;;14.37;13.77;;;2.30;99.90;;;;;;5067013;28;20462;-76
2021/01/30 04:37:40;;;;;;;14.13;13.53;;;2.30;99.90;;;;;;5066707;28;20485;-74
2021/01/30 04:40:09;;;;;;;14.80;14.10;;;2.30;99.90;;;;;;5065532;28;20527;-72
2021/01/30 04:42:45;;;;;;;14.30;13.70;;;2.40;99.90;;;;;;5065101;28;20505;-76
2021/01/30 04:45:18;;;;;;;13.17;12.60;;;2.20;99.90;;;;;;5064937;28;20463;-76
2021/01/30 04:47:52;;;;;;;13.37;12.77;;;2.10;99.90;;;;;;5064672;28;20470;-75
2021/01/30 04:50:30;;;;;;;13.87;13.27;;;2.10;99.90;;;;;;5064576;28;20466;-73
2021/01/30 04:53:04;;;;;;;13.57;12.97;;;2.00;99.90;;;;;;5067884;28;20510;-74
2021/01/30 04:55:42;;;;;;;13.27;12.67;;;1.90;99.90;;;;;;5064969;28;20899;-74
2021/01/30 04:58:15;;;;;;;13.47;12.87;;;1.90;99.90;;;;;;5065361;28;20468;-73
2021/01/30 05:00:57;;;;;;;12.70;12.20;;;1.90;99.90;;;;;;5064697;28;20466;-74
2021/01/30 05:03:40;;;;;;;13.30;12.70;;;1.90;99.90;;;;;;5059144;28;20498;-73
2021/01/30 05:06:15;;;;;;;12.93;12.43;;;1.80;99.90;;;;;;5064183;28;20469;-75
2021/01/30 05:08:45;;;;;;;12.80;12.30;;;1.80;99.90;;;;;;5066021;28;20637;-75
2021/01/30 05:11:16;;;;;;;12.67;12.17;;;1.70;99.90;;;;;;5064460;28;20466;-74
2021/01/30 05:13:47;;;;;;;13.47;12.87;;;1.60;99.90;;;;;;5063184;28;20470;-76
2021/01/30 05:16:23;;;;;;;13.57;12.97;;;1.70;99.90;;;;;;5064377;28;20473;-76
2021/01/30 05:18:53;;;;;;;13.23;12.63;;;1.60;99.90;;;;;;5064049;28;20982;-73
2021/01/30 05:21:24;;;;;;;13.43;12.83;;;1.60;99.90;;;;;;5064476;28;20466;-74
2021/01/30 05:23:54;;;;;;;51.73;33.40;;;1.70;99.90;;;;;;5062889;28;20473;-73
2021/01/30 05:26:27;;;;;;;47.87;34.00;;;1.70;99.90;;;;;;5065108;28;20469;-76
2021/01/30 05:29:05;;;;;;;52.63;34.97;;;1.70;99.90;;;;;;5065451;28;20466;-75
2021/01/30 05:31:41;;;;;;;56.33;33.50;;;1.80;99.90;;;;;;5064162;28;20963;-75
2021/01/30 05:34:12;;;;;;;50.27;34.83;;;1.70;99.90;;;;;;5061228;28;20719;-74
2021/01/30 05:36:44;;;;;;;51.70;37.00;;;1.70;99.90;;;;;;5061560;28;20946;-74
2021/01/30 05:39:26;;;;;;;54.33;37.30;;;1.80;99.90;;;;;;5063846;28;20469;-75
2021/01/30 05:42:05;;;;;;;45.83;32.90;;;1.80;99.90;;;;;;5064124;28;20547;-77
2021/01/30 05:44:41;;;;;;;49.60;35.80;;;1.70;99.90;;;;;;5063858;28;20524;-78
2021/01/30 05:47:14;;;;;;;49.03;35.60;;;1.80;99.90;;;;;;5065579;28;20799;-77
2021/01/30 05:49:59;;;;;;;41.90;31.07;;;1.70;99.90;;;;;;5066283;28;21281;-75
2021/01/30 05:52:29;;;;;;;53.80;36.50;;;1.50;99.90;;;;;;5064091;28;20469;-75
2021/01/30 05:54:56;;;;;;;59.80;37.80;;;1.50;99.90;;;;;;5063079;28;20587;-72
2021/01/30 05:57:22;;;;;;;49.77;37.67;;;1.50;99.90;;;;;;5063280;28;20481;-77
2021/01/30 05:59:51;;;;;;;66.80;42.07;;;1.40;99.90;;;;;;5065208;28;20461;-74
2021/01/30 06:02:21;;;;;;;65.63;38.97;;;1.50;99.90;;;;;;5065644;28;20851;-77
2021/01/30 06:04:48;;;;;;;50.17;35.80;;;1.50;99.90;;;;;;5063589;28;20971;-74
2021/01/30 06:07:35;;;;;;;47.47;35.33;;;1.50;99.90;;;;;;5064267;28;20542;-76
2021/01/30 06:10:26;;;;;;;49.70;32.87;;;1.40;99.90;;;;;;5064419;28;20469;-76
2021/01/30 06:13:11;;;;;;;42.03;33.50;;;1.20;99.90;;;;;;5063911;28;20543;-74
2021/01/30 06:15:40;;;;;;;42.17;31.77;;;1.10;99.90;;;;;;5063031;28;20496;-76
2021/01/30 06:18:24;;;;;;;43.87;34.80;;;1.20;99.90;;;;;;5063494;28;20967;-75
2021/01/30 06:20:58;;;;;;;44.53;33.67;;;1.40;99.90;;;;;;5064377;28;20461;-76
2021/01/30 06:23:25;;;;;;;36.87;30.30;;;1.30;99.90;;;;;;5066656;28;20500;-74
2021/01/30 06:25:53;;;;;;;42.30;35.67;;;1.30;99.90;;;;;;5063538;28;20959;-74
2021/01/30 06:28:25;;;;;;;40.30;32.67;;;1.30;99.90;;;;;;5064147;28;20569;-77
2021/01/30 06:30:52;;;;;;;35.57;30.50;;;1.40;99.90;;;;;;5062530;28;20460;-74
2021/01/30 06:33:27;;;;;;;45.90;34.47;;;1.40;99.90;;;;;;5065281;28;20471;-74
2021/01/30 06:35:57;;;;;;;40.40;33.27;;;1.30;99.90;;;;;;5064571;28;20465;-75
2021/01/30 06:38:30;;;;;;;55.07;34.00;;;1.20;99.90;;;;;;5063748;28;20457;-76
2021/01/30 06:41:00;;;;;;;48.33;36.90;;;1.20;99.90;;;;;;5063164;28;20847;-75
2021/01/30 06:43:30;;;;;;;36.83;31.37;;;1.30;99.90;;;;;;5062678;28;20502;-77
2021/01/30 06:46:07;;;;;;;44.60;36.13;;;1.20;99.90;;;;;;5064700;28;20952;-75
2021/01/30 06:48:39;;;;;;;47.70;35.07;;;1.30;99.90;;;;;;5064511;28;20464;-78
2021/01/30 06:51:22;;;;;;;43.23;31.23;;;1.30;99.90;;;;;;5063285;28;20468;-77
2021/01/30 06:53:48;;;;;;;26.77;23.90;;;1.30;99.90;;;;;;5063046;28;20604;-75
2021/01/30 06:56:19;;;;;;;30.73;27.43;;;1.30;99.90;;;;;;5062834;28;21060;-74
2021/01/30 06:58:48;;;;;;;46.10;33.43;;;1.10;99.90;;;;;;5064339;28;20468;-74
2021/01/30 07:01:17;;;;;;;39.07;31.00;;;1.10;99.90;;;;;;5063812;28;20520;-74
2021/01/30 07:04:02;;;;;;;42.10;32.73;;;1.20;99.90;;;;;;5063253;28;20502;-75
2021/01/30 07:06:37;;;;;;;40.83;29.90;;;1.10;99.90;;;;;;5062601;28;20511;-77
2021/01/30 07:09:17;;;;;;;43.10;30.77;;;1.10;99.90;;;;;;5063446;28;20466;-78
2021/01/30 07:11:54;;;;;;;40.33;29.90;;;1.20;99.90;;;;;;5063085;28;20468;-74
2021/01/30 07:14:41;;;;;;;29.80;26.27;;;1.10;99.90;;;;;;5060896;28;20576;-77
2021/01/30 07:17:16;;;;;;;45.03;32.10;;;1.10;99.90;;;;;;5062412;28;20466;-75
2021/01/30 07:19:57;;;;;;;45.93;31.57;;;1.10;99.90;;;;;;5063607;28;20769;-78
2021/01/30 07:22:29;;;;;;;43.10;31.53;;;1.00;99.90;;;;;;5064653;28;20485;-78
2021/01/30 07:25:02;;;;;;;39.47;29.27;;;1.10;99.90;;;;;;5062461;28;20469;-78
2021/01/30 07:27:34;;;;;;;52.70;31.17;;;1.10;99.90;;;;;;5062130;28;20473;-77
2021/01/30 07:30:04;;;;;;;40.77;29.70;;;1.10;99.90;;;;;;5062639;28;20459;-76
2021/01/30 07:32:35;;;;;;;42.47;29.37;;;1.10;99.90;;;;;;5062783;28;20465;-72
2021/01/30 07:35:16;;;;;;;41.67;29.53;;;1.00;99.90;;;;;;5063716;28;20464;-77
2021/01/30 07:37:52;;;;;;;34.87;25.83;;;1.10;99.90;;;;;;5063402;28;20852;-76
2021/01/30 07:40:21;;;;;;;37.10;29.70;;;1.10;99.90;;;;;;5063922;28;20464;-77
2021/01/30 07:42:55;;;;;;;36.23;27.57;;;1.10;99.90;;;;;;5068727;28;20516;-75
2021/01/30 07:45:25;;;;;;;39.67;30.07;;;1.10;99.90;;;;;;5066655;28;20970;-76
2021/01/30 07:48:02;;;;;;;40.83;31.30;;;1.10;99.90;;;;;;5065805;28;20508;-76
2021/01/30 07:50:32;;;;;;;31.60;25.70;;;1.20;99.90;;;;;;5065313;28;20463;-79
2021/01/30 07:53:07;;;;;;;39.50;27.40;;;1.10;99.90;;;;;;5066456;28;20539;-75
2021/01/30 07:55:34;;;;;;;30.53;25.30;;;1.10;99.90;;;;;;5067373;28;20579;-77
2021/01/30 07:58:17;;;;;;;36.17;26.57;;;1.20;99.90;;;;;;5067443;28;20471;-75
2021/01/30 08:00:55;;;;;;;32.07;25.97;;;1.10;99.90;;;;;;5065803;28;20975;-77
2021/01/30 08:03:42;;;;;;;31.10;24.87;;;1.10;99.90;;;;;;5066074;28;20496;-76
2021/01/30 08:06:35;;;;;;;31.10;23.90;;;1.10;99.90;;;;;;5065472;28;20887;-79
2021/01/30 08:09:12;;;;;;;28.03;22.73;;;1.10;99.90;;;;;;5056884;28;20477;-75
2021/01/30 08:11:41;;;;;;;41.90;29.57;;;1.10;99.90;;;;;;5066451;28;20555;-79
2021/01/30 08:14:24;;;;;;;37.67;26.40;;;1.10;99.90;;;;;;5065791;28;21039;-77
2021/01/30 08:17:02;;;;;;;44.67;30.40;;;1.20;99.90;;;;;;5068404;28;20460;-77
2021/01/30 08:19:37;;;;;;;43.80;28.93;;;1.20;99.90;;;;;;5066785;28;20560;-77
2021/01/30 08:22:10;;;;;;;43.77;33.07;;;1.10;99.90;;;;;;5066965;28;21006;-75
2021/01/30 08:24:45;;;;;;;46.70;30.70;;;1.20;99.90;;;;;;5062801;28;20461;-79
2021/01/30 08:27:18;;;;;;;42.30;29.60;;;1.30;99.90;;;;;;5064871;28;20506;-77
2021/01/30 08:29:48;;;;;;;46.77;32.37;;;1.40;99.90;;;;;;5058857;28;20962;-77
2021/01/30 08:32:53;;;;;;;43.23;31.03;;;1.30;99.90;;;;;;5052850;28;20461;-75
2021/01/30 08:35:44;;;;;;;37.23;25.73;;;1.20;99.90;;;;;;5062971;28;20485;-75
2021/01/30 08:38:32;;;;;;;33.33;27.03;;;1.30;99.90;;;;;;5065055;28;20828;-79
2021/01/30 08:41:01;;;;;;;35.40;27.03;;;1.30;99.90;;;;;;5065903;28;20458;-75
2021/01/30 08:43:38;;;;;;;30.23;22.97;;;1.30;99.90;;;;;;5064287;28;20519;-74
2021/01/30 08:46:25;;;;;;;34.33;27.97;;;1.20;99.90;;;;;;5064224;28;20456;-77
2021/01/30 08:49:21;;;;;;;29.90;25.50;;;1.30;99.90;;;;;;5064718;28;20480;-75
2021/01/30 08:51:50;;;;;;;28.43;23.83;;;1.20;99.90;;;;;;5063986;28;20489;-77
2021/01/30 08:54:35;;;;;;;34.17;26.47;;;1.30;99.90;;;;;;5063612;28;20571;-78
2021/01/30 08:57:03;;;;;;;33.10;28.80;;;1.30;99.90;;;;;;5064172;28;20520;-76
2021/01/30 08:59:44;;;;;;;32.33;26.80;;;1.30;99.90;;;;;;5065050;28;20455;-78
2021/01/30 09:02:47;;;;;;;25.17;22.47;;;1.30;99.90;;;;;;5066181;28;20524;-81
2021/01/30 09:05:42;;;;;;;30.27;24.30;;;1.40;99.90;;;;;;5064523;28;20837;-77
2021/01/30 09:08:59;;;;;;;28.27;24.50;;;1.50;99.90;;;;;;5066899;28;21151;-79
2021/01/30 09:11:39;;;;;;;27.10;24.33;;;1.50;99.90;;;;;;5065533;28;20469;-78
2021/01/30 09:14:12;;;;;;;25.43;22.80;;;1.50;99.90;;;;;;5066113;28;20465;-77
2021/01/30 09:16:47;;;;;;;26.50;23.80;;;1.50;99.90;;;;;;5062834;28;20470;-74
2021/01/30 09:19:23;;;;;;;25.13;22.23;;;1.50;99.90;;;;;;5062886;28;20474;-79
2021/01/30 09:22:00;;;;;;;27.37;23.73;;;1.50;99.90;;;;;;5064511;28;20825;-77
2021/01/30 09:24:48;;;;;;;25.27;22.07;;;1.60;99.90;;;;;;5061882;28;20461;-75
2021/01/30 09:27:22;;;;;;;28.00;23.53;;;1.60;99.90;;;;;;5061146;28;20684;-77
2021/01/30 09:29:51;;;;;;;25.20;22.70;;;1.70;99.90;;;;;;5062783;28;20470;-78
2021/01/30 09:32:24;;;;;;;36.20;24.90;;;1.70;99.90;;;;;;5061045;28;20552;-75
2021/01/30 09:34:53;;;;;;;25.20;22.70;;;1.70;99.90;;;;;;5064404;28;20469;-78
2021/01/30 09:37:33;;;;;;;26.77;24.03;;;1.80;99.90;;;;;;5060209;28;20466;-80
2021/01/30 09:40:00;;;;;;;27.63;24.73;;;1.80;99.90;;;;;;5059220;28;20519;-74
2021/01/30 09:42:28;;;;;;;25.30;22.70;;;1.80;99.90;;;;;;5061593;28;20486;-75
2021/01/30 09:45:05;;;;;;;24.80;22.50;;;1.80;99.90;;;;;;5062719;28;20992;-78
2021/01/30 09:47:32;;;;;;;23.47;21.43;;;1.80;99.90;;;;;;5066029;28;20808;-78
2021/01/30 09:50:02;;;;;;;21.70;19.67;;;1.70;99.90;;;;;;5065401;28;20463;-75
2021/01/30 09:52:31;;;;;;;25.13;21.73;;;1.80;99.90;;;;;;5062775;28;20472;-75
2021/01/30 09:55:02;;;;;;;18.80;17.30;;;1.80;99.90;;;;;;5062186;28;20492;-78
2021/01/30 09:57:29;;;;;;;24.20;21.80;;;1.90;99.90;;;;;;5062599;28;20470;-75
2021/01/30 09:59:56;;;;;;;23.33;21.03;;;1.90;99.90;;;;;;5063964;28;20603;-77
2021/01/30 10:02:24;;;;;;;22.00;20.30;;;1.90;99.90;;;;;;5057638;28;20485;-77
2021/01/30 10:05:04;;;;;;;21.90;20.07;;;2.00;99.90;;;;;;5063821;28;20473;-77
2021/01/30 10:07:31;;;;;;;22.07;19.97;;;2.00;99.90;;;;;;5062788;28;20475;-77
2021/01/30 10:09:57;;;;;;;24.03;21.87;;;1.90;99.90;;;;;;5063128;28;20970;-74
2021/01/30 10:12:25;;;;;;;21.60;19.80;;;2.00;99.90;;;;;;5060400;28;20462;-79
2021/01/30 10:14:54;;;;;;;18.57;17.07;;;2.10;99.90;;;;;;5062763;28;20819;-78
2021/01/30 10:17:26;;;;;;;23.37;21.27;;;2.10;99.90;;;;;;5062301;28;20459;-77
2021/01/30 10:19:58;;;;;;;22.70;20.80;;;2.00;99.90;;;;;;5064889;28;20982;-75
2021/01/30 10:22:35;;;;;;;22.97;21.03;;;2.20;99.90;;;;;;5063521;28;20481;-79
2021/01/30 10:25:05;;;;;;;23.90;21.63;;;2.10;99.90;;;;;;5064064;28;20835;-79
2021/01/30 10:27:32;;;;;;;20.97;19.27;;;2.20;99.90;;;;;;5057826;28;20465;-76
2021/01/30 10:29:59;;;;;;;21.90;20.00;;;2.30;99.90;;;;;;5062867;28;20977;-77
2021/01/30 10:32:36;;;;;;;20.60;18.90;;;2.20;99.90;;;;;;5062886;28;20474;-77
2021/01/30 10:35:05;;;;;;;21.30;19.60;;;2.20;99.90;;;;;;5062208;28;20472;-76
2021/01/30 10:37:40;;;;;;;23.70;21.40;;;2.30;99.90;;;;;;5061433;28;20763;-76
2021/01/30 10:40:12;;;;;;;20.60;18.57;;;2.40;99.90;;;;;;5063103;28;20473;-77
2021/01/30 10:42:39;;;;;;;23.97;21.87;;;2.60;99.90;;;;;;5063966;28;20486;-77
2021/01/30 10:45:16;;;;;;;20.20;18.70;;;2.50;99.90;;;;;;5062228;28;20504;-77
2021/01/30 10:47:43;;;;;;;19.97;18.33;;;2.50;99.90;;;;;;5064072;28;20533;-74
2021/01/30 10:50:15;;;;;;;22.67;20.73;;;2.40;99.90;;;;;;5061768;28;20612;-75
2021/01/30 10:52:42;;;;;;;23.13;21.23;;;2.30;99.90;;;;;;5064260;28;20474;-77
2021/01/30 10:55:30;;;;;;;21.83;20.03;;;2.50;99.90;;;;;;5064078;28;20577;-75
2021/01/30 10:58:12;;;;;;;22.83;20.70;;;2.20;99.90;;;;;;5064143;28;20466;-78
2021/01/30 11:00:40;;;;;;;17.97;16.37;;;2.30;99.90;;;;;;5063365;28;20462;-75
2021/01/30 11:03:20;;;;;;;21.00;19.40;;;2.30;99.90;;;;;;5062708;28;20502;-75
2021/01/30 11:05:46;;;;;;;20.87;19.07;;;2.40;99.90;;;;;;5062860;28;20515;-75
2021/01/30 11:08:25;;;;;;;20.40;18.90;;;2.30;99.90;;;;;;5063558;28;20508;-79
2021/01/30 11:11:01;;;;;;;21.87;20.03;;;2.30;99.90;;;;;;5062862;28;20508;-79
2021/01/30 11:13:31;;;;;;;22.17;20.30;;;2.40;99.90;;;;;;5064827;28;20465;-75
2021/01/30 11:16:07;;;;;;;18.40;16.93;;;2.40;99.90;;;;;;5064652;28;20466;-79
2021/01/30 11:18:37;;;;;;;19.33;17.50;;;2.50;99.90;;;;;;5066363;28;20492;-79
2021/01/30 11:21:06;;;;;;;20.83;19.10;;;2.50;99.90;;;;;;5067105;28;20830;-75
2021/01/30 11:23:41;;;;;;;16.23;15.23;;;2.40;99.90;;;;;;5063196;28;20497;-75
2021/01/30 11:26:13;;;;;;;18.50;17.27;;;2.40;99.90;;;;;;5060682;28;20597;-76
2021/01/30 11:28:39;;;;;;;35.53;17.97;;;2.50;99.90;;;;;;5063533;28;20470;-76
2021/01/30 11:31:08;;;;;;;20.80;18.90;;;2.50;99.90;;;;;;5068285;28;20469;-76
2021/01/30 11:33:34;;;;;;;20.20;18.47;;;2.60;99.90;;;;;;5064118;28;20488;-76
2021/01/30 11:36:01;;;;;;;20.23;18.70;;;2.60;99.90;;;;;;5065691;28;20559;-76
2021/01/30 11:38:29;;;;;;;20.63;18.57;;;2.70;99.90;;;;;;5064393;28;20836;-78
2021/01/30 11:40:59;;;;;;;20.03;18.63;;;2.80;99.90;;;;;;5066827;28;20484;-77
2021/01/30 11:43:26;;;;;;;19.80;18.30;;;2.80;99.90;;;;;;5068112;28;20492;-76
2021/01/30 11:45:54;;;;;;;21.00;19.40;;;2.90;99.90;;;;;;5064035;28;20466;-75
2021/01/30 11:48:22;;;;;;;18.97;17.67;;;3.00;99.90;;;;;;5066802;28;20465;-78
2021/01/30 11:50:51;;;;;;;18.20;16.87;;;3.00;99.90;;;;;;5064205;28;20465;-75
2021/01/30 11:53:19;;;;;;;20.30;18.63;;;3.10;99.90;;;;;;5065811;28;20503;-74
2021/01/30 11:55:47;;;;;;;19.43;18.03;;;3.00;99.90;;;;;;5065729;28;20888;-77
2021/01/30 11:58:15;;;;;;;20.97;19.20;;;3.10;99.90;;;;;;5065303;28;20505;-77
2021/01/30 12:00:41;;;;;;;19.93;17.93;;;3.10;99.90;;;;;;5068487;28;20461;-75
2021/01/30 12:03:11;;;;;;;18.60;17.33;;;3.10;99.90;;;;;;5065213;28;20497;-75
2021/01/30 12:05:37;;;;;;;19.93;18.40;;;2.90;99.90;;;;;;5063728;28;20470;-77
2021/01/30 12:08:04;;;;;;;19.57;18.20;;;3.00;99.90;;;;;;5064703;28;20466;-75
2021/01/30 12:10:31;;;;;;;22.67;20.87;;;3.00;99.90;;;;;;5064208;28;20727;-76
2021/01/30 12:12:57;;;;;;;19.97;18.57;;;3.00;99.90;;;;;;5064486;28;20470;-76
2021/01/30 12:15:24;;;;;;;19.07;17.77;;;3.00;99.90;;;;;;5063504;28;20467;-75
2021/01/30 12:17:50;;;;;;;18.83;17.63;;;3.10;99.90;;;;;;5061163;28;20469;-76
2021/01/30 12:20:20;;;;;;;21.83;20.10;;;3.10;99.90;;;;;;5064198;28;20512;-75
2021/01/30 12:22:47;;;;;;;19.60;17.80;;;3.10;99.90;;;;;;5062763;28;20489;-78
2021/01/30 12:25:16;;;;;;;20.90;19.30;;;3.30;99.90;;;;;;5061289;28;20936;-75
2021/01/30 12:27:49;;;;;;;19.63;18.33;;;3.40;99.90;;;;;;5065668;28;20494;-76
2021/01/30 12:30:17;;;;;;;21.63;20.00;;;3.40;99.90;;;;;;5063987;28;20473;-77
2021/01/30 12:32:45;;;;;;;20.20;18.80;;;3.50;99.90;;;;;;5063735;28;20471;-75
2021/01/30 12:35:12;;;;;;;21.07;19.53;;;3.60;99.90;;;;;;5063972;28;20466;-77
2021/01/30 12:37:39;;;;;;;20.60;19.07;;;3.70;99.90;;;;;;5063006;28;20458;-76
2021/01/30 12:40:07;;;;;;;20.90;19.33;;;3.90;99.90;;;;;;5065205;28;20471;-78
2021/01/30 12:42:33;;;;;;;20.20;18.67;;;3.80;99.90;;;;;;5062860;28;20491;-77
2021/01/30 12:44:59;;;;;;;20.17;18.70;;;3.90;99.90;;;;;;5062895;28;20828;-78
2021/01/30 12:47:27;;;;;;;18.83;17.53;;;4.00;99.90;;;;;;5062169;28;20463;-76
2021/01/30 12:49:54;;;;;;;20.43;18.93;;;4.00;99.90;;;;;;5064524;28;20469;-74
2021/01/30 12:52:21;;;;;;;21.00;19.53;;;4.00;99.90;;;;;;5065192;28;20871;-75
2021/01/30 12:54:48;;;;;;;20.37;18.67;;;4.00;99.90;;;;;;5062682;28;20576;-76
2021/01/30 12:57:14;;;;;;;19.60;18.20;;;4.20;99.90;;;;;;5062463;28;20463;-75
2021/01/30 12:59:40;;;;;;;19.73;18.43;;;4.20;99.90;;;;;;5065328;28;20471;-76